Het weer levert geen direct gevaar op.    Er zijn geen waarschuwingen afgegeven.

metar rapporten vliegvelden

   
EBAW - Antwerp
gewijzigd: 22-07-2017 00:20
helder  
helder  
   wind: zo 5,6 km/h
wind: zo 5,6 km/h
temperatuur: 19°C
dauwpunt: 12°C
vochtigheid: 64%
barometer: 1009 hPa
zicht: meer dan 10 km
bewolking: helder
EBAW 212220Z AUTO 13003KT 100V180 CAVOK 19/12 Q1009
EBLG - Li├Ęge
gewijzigd: 22-07-2017 00:20
helder  
helder  
   wind: zzo 7,4 km/h
wind: zzo 7,4 km/h
temperatuur: 21°C
dauwpunt: 12°C
vochtigheid: 57%
barometer: 1010 hPa
zicht: meer dan 10 km
bewolking: helder
EBLG 212220Z 15004KT 120V240 CAVOK 21/12 Q1010 NOSIG
EBCV - Mons/Bergen
gewijzigd: 21-07-2017 23:55
helder  
helder  
   wind: zuiden 11,1 km/h
wind: zuiden 11,1 km/h
temperatuur: 16°C
dauwpunt: 10°C
vochtigheid: 68%
barometer: 1009 hPa
bewolking: helder
zicht: meer dan 10 km
bewolking: helder
EBCV 212155Z AUTO 19006KT 9999 NCD 16/10 Q1009 BLU
EHBK - Maastricht
gewijzigd: 22-07-2017 00:25
gedeeltelijk bewolkt  
gedeeltelijk bewolkt  
   wind: zzo 7,4 km/h
wind: zzo 7,4 km/h
temperatuur: 21°C
dauwpunt: 13°C
vochtigheid: 60%
barometer: 1010 hPa
bewolking: gedeeltelijk bewolkt
zicht: meer dan 10 km
bewolking: gedeeltelijk bewolkt
EHBK 212225Z AUTO 15004KT 9999 NSC 21/13 Q1010
ELLX - Luxemburg
gewijzigd: 22-07-2017 00:20
grotendeels bewolkt  
grotendeels bewolkt  
   wind: zuiden 11,1 km/h
wind: zuiden 11,1 km/h
temperatuur: 20°C
dauwpunt: 14°C
vochtigheid: 69%
barometer: 1012 hPa
bewolking: grotendeels bewolkt
zicht: meer dan 10 km
bewolking: gedeeltelijk bewolkt 4500 ft,
grotendeels bewolkt 9000 ft
ELLX 212220Z 18006KT 150V210 9999 SCT045 BKN090 20/14 Q1012 NOSIG
EBOS - Oostende
gewijzigd: 22-07-2017 00:20
helder  
helder  
   wind: zuiden 5,6 km/h
wind: zuiden 5,6 km/h
temperatuur: 13°C
dauwpunt: 11°C
vochtigheid: 88%
barometer: 1009 hPa
zicht: meer dan 10 km
bewolking: helder
EBOS 212220Z 17003KT CAVOK 13/11 Q1009 NOSIG

script ontwikkeld door  Saratoga-weather.org aangepast voor de template door  Weerstation Leuven